Date,TemperatureHighF,TemperatureAvgF,TemperatureLowF,DewpointHighF,DewpointAvgF,DewpointLowF,HumidityHigh,HumidityAvg,HumidityLow,PressureMaxIn,PressureMinIn,WindSpeedMaxMPH,WindSpeedAvgMPH,GustSpeedMaxMPH,PrecipitationSumIn
2013-1-1,21,20,19,10,9,8,65,62,59,29.58,29.55,0,0,0,0.00
2013-1-2,31,22,15,16,11,3,73,62,50,29.74,29.54,0,0,0,0.00
2013-1-3,27,19,4,16,6,-5,68,58,51,29.76,29.60,0,0,0,0.00
2013-1-4,38,31,25,24,21,16,76,66,56,29.60,29.46,0,0,0,0.00
2013-1-5,40,33,26,26,21,17,70,61,48,29.86,29.52,0,0,0,0.00
2013-1-6,44,36,28,34,27,22,78,70,58,29.60,29.54,0,0,0,0.00
2013-1-7,38,31,21,26,22,14,81,69,50,29.98,29.60,0,0,0,0.00
2013-1-8,46,32,18,29,22,12,81,69,50,29.97,29.89,0,0,0,0.00
2013-1-9,44,33,21,35,26,16,81,76,67,29.97,29.66,0,0,0,0.00
2013-1-10,43,41,40,32,28,26,71,60,53,29.82,29.73,0,0,0,0.00
2013-1-11,36,34,33,29,28,27,84,78,70,29.97,29.77,0,0,0,0.00
2013-1-12,47,39,33,43,35,29,88,85,82,29.78,29.72,0,0,0,0.00
2013-1-13,47,42,38,44,38,34,88,86,85,29.75,29.60,0,0,0,0.00
2013-1-14,53,45,36,47,37,26,87,76,55,29.89,29.46,0,0,0,0.00
2013-1-15,39,35,31,28,26,25,78,70,61,29.94,29.83,0,0,0,0.00
2013-1-16,37,32,30,33,27,25,86,82,73,29.84,29.43,0,0,0,0.00
2013-1-17,40,33,27,32,26,14,84,75,57,29.71,29.46,0,0,0,0.00
2013-1-18,27,22,18,16,7,0,65,52,39,30.04,29.67,0,0,0,0.00
2013-1-19,44,35,22,30,22,10,72,60,48,29.95,29.47,0,0,0,0.00
2013-1-20,50,39,27,32,24,10,75,57,28,29.57,29.22,0,0,0,0.00
2013-1-21,29,24,19,19,14,9,78,63,46,29.69,29.39,0,0,0,0.00
2013-1-22,21,18,12,15,3,-5,80,53,35,29.71,29.36,0,0,0,0.00
2013-1-23,17,11,6,-1,-4,-6,67,52,39,29.77,29.70,0,0,0,0.00
2013-1-24,19,11,4,2,-5,-8,64,50,32,29.89,29.71,0,0,0,0.00
2013-1-25,22,16,10,11,1,-3,73,52,35,29.95,29.64,0,0,0,0.00
2013-1-26,24,16,8,9,5,2,77,62,44,29.90,29.62,0,0,0,0.00
2013-1-27,31,20,7,20,6,1,76,56,29,30.05,29.90,0,0,0,0.00
2013-1-28,30,24,15,25,16,5,81,72,50,30.04,29.57,0,0,0,0.00
2013-1-29,38,32,27,31,26,23,83,80,75,29.75,29.57,0,0,0,0.00
2013-1-30,54,43,33,50,39,28,86,84,81,29.71,29.01,0,0,0,0.00
2013-1-31,59,46,31,53,33,12,85,63,38,29.23,28.60,0,0,0,0.06
2013-2-1,31,26,21,19,11,6,66,51,39,29.71,29.23,0,0,0,0.00
2013-2-2,30,24,16,17,9,5,77,55,37,29.83,29.62,0,0,0,0.00
2013-2-3,32,24,18,26,16,12,80,71,56,29.63,29.34,0,0,0,0.00
2013-2-4,29,24,21,15,10,6,75,56,41,29.52,29.34,0,0,0,0.00
2013-2-5,30,26,22,21,16,9,79,66,52,29.58,29.49,0,0,0,0.00
2013-2-6,38,30,23,25,17,2,81,62,35,29.91,29.49,0,0,0,0.01
2013-2-7,32,25,17,12,8,4,65,49,37,30.08,29.91,0,0,0,0.00
2013-2-8,30,26,20,25,19,10,84,74,51,29.99,29.22,0,0,0,0.00
2013-2-9,26,22,18,19,10,0,84,62,33,29.84,29.28,0,0,0,0.00
2013-2-10,37,23,10,14,6,-3,65,47,31,30.00,29.84,0,0,0,0.01
2013-2-11,40,31,20,36,25,10,84,77,65,29.90,29.23,0,0,0,0.01
2013-2-12,44,38,35,34,29,24,82,69,53,29.50,29.25,0,0,0,0.00
2013-2-13,43,36,32,27,24,22,79,61,49,29.48,29.28,0,0,0,0.00
2013-2-14,33,31,29,26,24,20,79,74,66,29.55,29.29,0,0,0,0.01
2013-2-15,50,38,28,35,29,21,80,69,50,29.55,29.47,0,0,0,0.00
2013-2-16,40,34,29,29,24,18,81,67,43,29.53,29.29,0,0,0,0.00
2013-2-17,29,23,15,18,5,1,64,47,37,29.41,29.11,0,0,0,0.00
2013-2-18,31,22,12,8,3,0,63,46,30,29.74,29.41,0,0,0,0.00
2013-2-19,45,34,20,35,24,7,83,66,47,29.74,29.16,0,0,0,0.04
2013-2-20,38,30,24,33,16,9,80,57,43,29.43,29.17,0,0,0,0.00
2013-2-21,29,25,21,15,12,10,70,59,52,29.83,29.42,0,0,0,0.00
2013-2-22,40,30,18,24,20,12,76,65,50,29.95,29.83,0,0,0,0.00
2013-2-23,39,34,32,35,28,24,85,79,72,29.85,29.43,0,0,0,0.04
2013-2-24,41,36,33,34,30,26,84,80,73,29.48,29.28,0,0,0,0.00
2013-2-25,43,36,30,30,26,24,78,70,55,29.80,29.48,0,0,0,0.00
2013-2-26,44,35,28,32,27,22,80,71,58,29.88,29.64,0,0,0,0.01
2013-2-27,37,35,33,33,30,28,84,83,78,29.64,29.17,0,0,0,0.09
2013-2-28,46,38,34,38,33,30,84,81,73,29.19,29.11,0,0,0,0.00
2013-3-1,44,38,35,32,30,27,80,71,57,29.29,29.13,0,0,0,0.00
2013-3-2,39,35,31,28,26,24,77,71,61,29.30,29.22,0,0,0,0.00
2013-3-3,36,31,27,26,22,20,76,71,57,29.25,29.19,0,0,0,0.00
2013-3-4,37,31,27,23,21,19,74,67,55,29.38,29.25,0,0,0,0.00
2013-3-5,46,37,29,28,25,20,74,63,50,29.61,29.39,0,0,0,0.00
2013-3-6,41,37,35,33,29,26,80,74,65,29.59,29.53,0,0,0,0.01
2013-3-7,37,34,31,30,28,26,82,79,71,29.61,29.54,0,0,0,0.03
2013-3-8,41,36,32,31,28,24,83,72,55,29.72,29.52,0,0,0,0.04
2013-3-9,56,41,29,24,19,10,70,45,17,29.89,29.72,0,0,0,0.00
2013-3-10,51,37,24,34,27,18,78,67,47,29.96,29.84,0,0,0,0.00
2013-3-11,51,43,36,41,36,29,84,75,66,29.87,29.67,0,0,0,0.00
2013-3-12,53,48,40,47,43,34,82,81,77,29.67,29.26,0,0,0,0.25
2013-3-13,44,39,35,34,28,25,78,67,48,29.39,29.33,0,0,0,0.00
2013-3-14,35,30,27,27,17,11,77,60,42,29.43,29.35,0,0,0,0.00
2013-3-15,43,32,24,28,19,10,79,59,36,29.47,29.24,0,0,0,0.00
2013-3-16,38,34,28,28,19,14,73,55,38,29.45,29.29,0,0,0,0.00
2013-3-17,37,30,23,18,12,7,62,47,30,29.85,29.45,0,0,0,0.00
2013-3-18,38,29,19,23,9,4,80,45,25,29.99,29.70,0,0,0,0.00
2013-3-19,36,32,28,30,27,24,83,82,81,29.69,29.21,0,0,0,0.02
2013-3-20,39,32,26,26,20,17,80,64,42,29.37,29.30,0,0,0,0.00
2013-3-21,40,31,23,21,17,12,79,57,36,29.38,29.15,0,0,0,0.00
2013-3-22,40,32,23,24,18,12,70,57,45,29.36,29.22,0,0,0,0.00
2013-3-23,42,36,30,25,22,19,71,57,40,29.42,29.29,0,0,0,0.00
2013-3-24,46,37,26,28,23,19,75,58,43,29.44,29.28,0,0,0,0.00
2013-3-25,46,38,32,28,25,22,70,61,48,29.31,29.03,0,0,0,0.00
2013-3-26,38,36,33,28,23,18,71,59,48,29.37,29.12,0,0,0,0.00
2013-3-27,52,42,31,29,25,18,67,52,30,29.46,29.35,0,0,0,0.00
2013-3-28,51,43,37,34,31,27,72,63,46,29.60,29.45,0,0,0,0.00
2013-3-29,54,45,36,34,31,28,73,58,40,29.64,29.55,0,0,0,0.00
2013-3-30,56,44,36,32,25,19,73,51,25,29.66,29.57,0,0,0,0.00
2013-3-31,56,44,27,38,29,19,77,56,32,29.67,29.22,0,0,0,0.00
2013-4-1,61,46,34,44,36,20,81,71,45,29.36,29.08,0,0,0,0.00
2013-4-2,37,31,25,19,17,14,72,57,41,29.43,29.38,0,0,0,0.00